sensor_id;sensor_type;location;lat;lon;timestamp;P1;durP1;ratioP1;P2;durP2;ratioP2
9473;SDS011;8865;47.636;7.692;2023-04-23T00:00:27;3.27;;;2.63;;
9473;SDS011;8865;47.636;7.692;2023-04-23T00:02:55;4.10;;;2.60;;
9473;SDS011;8865;47.636;7.692;2023-04-23T00:05:23;3.50;;;2.37;;
9473;SDS011;8865;47.636;7.692;2023-04-23T00:07:52;2.60;;;2.20;;
9473;SDS011;8865;47.636;7.692;2023-04-23T00:10:19;2.30;;;2.10;;
9473;SDS011;8865;47.636;7.692;2023-04-23T00:12:46;2.60;;;2.40;;
9473;SDS011;8865;47.636;7.692;2023-04-23T00:15:12;3.87;;;2.60;;
9473;SDS011;8865;47.636;7.692;2023-04-23T00:17:38;2.60;;;1.97;;
9473;SDS011;8865;47.636;7.692;2023-04-23T00:20:05;3.53;;;2.00;;
9473;SDS011;8865;47.636;7.692;2023-04-23T00:22:31;2.77;;;2.17;;
9473;SDS011;8865;47.636;7.692;2023-04-23T00:24:57;2.87;;;2.00;;
9473;SDS011;8865;47.636;7.692;2023-04-23T00:27:23;1.83;;;1.70;;
9473;SDS011;8865;47.636;7.692;2023-04-23T00:29:49;2.33;;;1.90;;
9473;SDS011;8865;47.636;7.692;2023-04-23T00:32:15;2.00;;;1.80;;
9473;SDS011;8865;47.636;7.692;2023-04-23T00:34:41;2.73;;;1.93;;
9473;SDS011;8865;47.636;7.692;2023-04-23T00:37:07;2.47;;;1.70;;
9473;SDS011;8865;47.636;7.692;2023-04-23T00:39:33;3.03;;;1.73;;
9473;SDS011;8865;47.636;7.692;2023-04-23T00:42:02;2.00;;;1.80;;
9473;SDS011;8865;47.636;7.692;2023-04-23T00:44:34;1.63;;;1.47;;
9473;SDS011;8865;47.636;7.692;2023-04-23T00:47:01;1.60;;;1.50;;
9473;SDS011;8865;47.636;7.692;2023-04-23T00:49:27;3.17;;;1.40;;
9473;SDS011;8865;47.636;7.692;2023-04-23T00:51:54;1.80;;;1.50;;
9473;SDS011;8865;47.636;7.692;2023-04-23T00:54:20;1.57;;;1.47;;
9473;SDS011;8865;47.636;7.692;2023-04-23T00:56:49;2.30;;;1.50;;
9473;SDS011;8865;47.636;7.692;2023-04-23T00:59:16;2.30;;;1.40;;
9473;SDS011;8865;47.636;7.692;2023-04-23T01:01:42;1.50;;;1.30;;
9473;SDS011;8865;47.636;7.692;2023-04-23T01:04:10;1.30;;;1.20;;
9473;SDS011;8865;47.636;7.692;2023-04-23T01:06:41;3.03;;;1.77;;
9473;SDS011;8865;47.636;7.692;2023-04-23T01:09:08;2.00;;;1.70;;
9473;SDS011;8865;47.636;7.692;2023-04-23T01:11:38;1.50;;;1.40;;
9473;SDS011;8865;47.636;7.692;2023-04-23T01:14:07;1.50;;;1.40;;
9473;SDS011;8865;47.636;7.692;2023-04-23T01:16:34;1.70;;;1.60;;
9473;SDS011;8865;47.636;7.692;2023-04-23T01:19:02;1.73;;;1.60;;
9473;SDS011;8865;47.636;7.692;2023-04-23T01:21:28;2.20;;;1.70;;
9473;SDS011;8865;47.636;7.692;2023-04-23T01:23:54;1.70;;;1.60;;
9473;SDS011;8865;47.636;7.692;2023-04-23T01:26:23;3.20;;;1.70;;
9473;SDS011;8865;47.636;7.692;2023-04-23T01:28:49;2.43;;;2.07;;
9473;SDS011;8865;47.636;7.692;2023-04-23T01:31:16;2.27;;;2.07;;
9473;SDS011;8865;47.636;7.692;2023-04-23T01:33:43;2.30;;;1.87;;
9473;SDS011;8865;47.636;7.692;2023-04-23T01:36:10;4.47;;;2.20;;
9473;SDS011;8865;47.636;7.692;2023-04-23T01:38:37;2.10;;;1.90;;
9473;SDS011;8865;47.636;7.692;2023-04-23T01:41:04;2.10;;;1.90;;
9473;SDS011;8865;47.636;7.692;2023-04-23T01:43:30;2.47;;;2.00;;
9473;SDS011;8865;47.636;7.692;2023-04-23T01:45:56;2.67;;;1.70;;
9473;SDS011;8865;47.636;7.692;2023-04-23T01:48:23;1.90;;;1.70;;
9473;SDS011;8865;47.636;7.692;2023-04-23T01:50:50;2.17;;;1.70;;
9473;SDS011;8865;47.636;7.692;2023-04-23T01:53:17;2.03;;;1.83;;
9473;SDS011;8865;47.636;7.692;2023-04-23T01:55:44;2.30;;;2.00;;
9473;SDS011;8865;47.636;7.692;2023-04-23T01:58:12;3.10;;;1.90;;
9473;SDS011;8865;47.636;7.692;2023-04-23T02:00:38;2.30;;;1.80;;
9473;SDS011;8865;47.636;7.692;2023-04-23T02:03:04;2.43;;;1.97;;
9473;SDS011;8865;47.636;7.692;2023-04-23T02:05:30;2.17;;;1.90;;
9473;SDS011;8865;47.636;7.692;2023-04-23T02:07:59;1.97;;;1.77;;
9473;SDS011;8865;47.636;7.692;2023-04-23T02:10:25;2.30;;;2.00;;
9473;SDS011;8865;47.636;7.692;2023-04-23T02:12:52;3.83;;;2.10;;
9473;SDS011;8865;47.636;7.692;2023-04-23T02:15:18;4.73;;;2.17;;
9473;SDS011;8865;47.636;7.692;2023-04-23T02:17:44;2.43;;;2.10;;
9473;SDS011;8865;47.636;7.692;2023-04-23T02:20:10;3.33;;;2.43;;
9473;SDS011;8865;47.636;7.692;2023-04-23T02:22:37;2.47;;;2.27;;
9473;SDS011;8865;47.636;7.692;2023-04-23T02:25:05;2.93;;;2.30;;
9473;SDS011;8865;47.636;7.692;2023-04-23T02:27:33;2.33;;;2.00;;
9473;SDS011;8865;47.636;7.692;2023-04-23T02:29:59;2.90;;;1.80;;
9473;SDS011;8865;47.636;7.692;2023-04-23T02:32:25;2.17;;;1.97;;
9473;SDS011;8865;47.636;7.692;2023-04-23T02:34:52;3.57;;;2.00;;
9473;SDS011;8865;47.636;7.692;2023-04-23T02:37:19;3.47;;;2.57;;
9473;SDS011;8865;47.636;7.692;2023-04-23T02:39:45;5.47;;;2.40;;
9473;SDS011;8865;47.636;7.692;2023-04-23T02:42:11;5.77;;;3.10;;
9473;SDS011;8865;47.636;7.692;2023-04-23T02:44:38;3.80;;;2.60;;
9473;SDS011;8865;47.636;7.692;2023-04-23T02:47:04;3.10;;;2.37;;
9473;SDS011;8865;47.636;7.692;2023-04-23T02:49:30;3.00;;;2.30;;
9473;SDS011;8865;47.636;7.692;2023-04-23T02:51:56;3.00;;;2.30;;
9473;SDS011;8865;47.636;7.692;2023-04-23T02:54:22;2.63;;;2.43;;
9473;SDS011;8865;47.636;7.692;2023-04-23T02:56:48;2.93;;;2.40;;
9473;SDS011;8865;47.636;7.692;2023-04-23T02:59:14;3.00;;;2.20;;
9473;SDS011;8865;47.636;7.692;2023-04-23T03:01:40;4.00;;;2.23;;
9473;SDS011;8865;47.636;7.692;2023-04-23T03:04:06;3.13;;;2.20;;
9473;SDS011;8865;47.636;7.692;2023-04-23T03:06:32;2.93;;;2.30;;
9473;SDS011;8865;47.636;7.692;2023-04-23T03:09:00;2.70;;;2.10;;
9473;SDS011;8865;47.636;7.692;2023-04-23T03:11:26;2.47;;;2.20;;
9473;SDS011;8865;47.636;7.692;2023-04-23T03:13:52;3.33;;;2.27;;
9473;SDS011;8865;47.636;7.692;2023-04-23T03:16:18;3.17;;;2.33;;
9473;SDS011;8865;47.636;7.692;2023-04-23T03:18:44;3.83;;;2.20;;
9473;SDS011;8865;47.636;7.692;2023-04-23T03:21:10;4.93;;;2.27;;
9473;SDS011;8865;47.636;7.692;2023-04-23T03:23:36;3.27;;;2.13;;
9473;SDS011;8865;47.636;7.692;2023-04-23T03:26:02;2.30;;;2.00;;
9473;SDS011;8865;47.636;7.692;2023-04-23T03:28:29;4.07;;;1.60;;
9473;SDS011;8865;47.636;7.692;2023-04-23T03:30:55;2.10;;;1.87;;
9473;SDS011;8865;47.636;7.692;2023-04-23T03:33:21;2.73;;;1.67;;
9473;SDS011;8865;47.636;7.692;2023-04-23T03:35:47;2.23;;;1.60;;
9473;SDS011;8865;47.636;7.692;2023-04-23T03:38:13;3.17;;;1.70;;
9473;SDS011;8865;47.636;7.692;2023-04-23T03:40:39;1.50;;;1.40;;
9473;SDS011;8865;47.636;7.692;2023-04-23T03:43:05;1.60;;;1.50;;
9473;SDS011;8865;47.636;7.692;2023-04-23T03:45:31;1.60;;;1.50;;
9473;SDS011;8865;47.636;7.692;2023-04-23T03:47:57;3.67;;;1.80;;
9473;SDS011;8865;47.636;7.692;2023-04-23T03:50:23;2.17;;;1.70;;
9473;SDS011;8865;47.636;7.692;2023-04-23T03:52:49;2.07;;;1.87;;
9473;SDS011;8865;47.636;7.692;2023-04-23T03:55:15;3.07;;;1.70;;
9473;SDS011;8865;47.636;7.692;2023-04-23T03:57:41;3.77;;;2.37;;
9473;SDS011;8865;47.636;7.692;2023-04-23T04:00:07;2.87;;;2.27;;
9473;SDS011;8865;47.636;7.692;2023-04-23T04:02:34;3.13;;;2.27;;
9473;SDS011;8865;47.636;7.692;2023-04-23T04:05:00;2.60;;;2.40;;
9473;SDS011;8865;47.636;7.692;2023-04-23T04:07:26;3.83;;;2.77;;
9473;SDS011;8865;47.636;7.692;2023-04-23T04:09:53;2.63;;;2.30;;
9473;SDS011;8865;47.636;7.692;2023-04-23T04:12:19;3.03;;;2.10;;
9473;SDS011;8865;47.636;7.692;2023-04-23T04:14:45;2.33;;;2.07;;
9473;SDS011;8865;47.636;7.692;2023-04-23T04:17:11;2.23;;;2.03;;
9473;SDS011;8865;47.636;7.692;2023-04-23T04:19:39;3.63;;;2.47;;
9473;SDS011;8865;47.636;7.692;2023-04-23T04:22:05;3.13;;;2.40;;
9473;SDS011;8865;47.636;7.692;2023-04-23T04:24:31;3.70;;;2.50;;
9473;SDS011;8865;47.636;7.692;2023-04-23T04:26:57;2.30;;;2.10;;
9473;SDS011;8865;47.636;7.692;2023-04-23T04:29:24;2.77;;;1.90;;
9473;SDS011;8865;47.636;7.692;2023-04-23T04:31:52;2.53;;;2.20;;
9473;SDS011;8865;47.636;7.692;2023-04-23T04:34:18;2.10;;;1.90;;
9473;SDS011;8865;47.636;7.692;2023-04-23T04:36:44;2.20;;;2.07;;
9473;SDS011;8865;47.636;7.692;2023-04-23T04:39:11;2.93;;;2.30;;
9473;SDS011;8865;47.636;7.692;2023-04-23T04:41:39;2.10;;;2.00;;
9473;SDS011;8865;47.636;7.692;2023-04-23T04:44:06;4.63;;;2.23;;
9473;SDS011;8865;47.636;7.692;2023-04-23T04:46:35;2.67;;;2.00;;
9473;SDS011;8865;47.636;7.692;2023-04-23T04:49:08;2.80;;;2.13;;
9473;SDS011;8865;47.636;7.692;2023-04-23T04:51:38;2.17;;;1.97;;
9473;SDS011;8865;47.636;7.692;2023-04-23T04:54:05;2.30;;;2.00;;
9473;SDS011;8865;47.636;7.692;2023-04-23T04:56:34;2.50;;;2.20;;
9473;SDS011;8865;47.636;7.692;2023-04-23T04:59:01;2.33;;;2.10;;
9473;SDS011;8865;47.636;7.692;2023-04-23T05:01:28;3.83;;;2.30;;
9473;SDS011;8865;47.636;7.692;2023-04-23T05:03:55;2.87;;;2.30;;
9473;SDS011;8865;47.636;7.692;2023-04-23T05:06:22;3.60;;;2.47;;
9473;SDS011;8865;47.636;7.692;2023-04-23T05:08:48;2.73;;;2.30;;
9473;SDS011;8865;47.636;7.692;2023-04-23T05:11:17;2.53;;;2.00;;
9473;SDS011;8865;47.636;7.692;2023-04-23T05:13:44;2.07;;;1.87;;
9473;SDS011;8865;47.636;7.692;2023-04-23T05:16:11;2.07;;;1.97;;
9473;SDS011;8865;47.636;7.692;2023-04-23T05:18:38;1.90;;;1.80;;
9473;SDS011;8865;47.636;7.692;2023-04-23T05:21:07;2.10;;;1.90;;
9473;SDS011;8865;47.636;7.692;2023-04-23T05:23:34;2.43;;;2.07;;
9473;SDS011;8865;47.636;7.692;2023-04-23T05:26:01;2.33;;;2.10;;
9473;SDS011;8865;47.636;7.692;2023-04-23T05:28:30;2.63;;;1.97;;
9473;SDS011;8865;47.636;7.692;2023-04-23T05:30:56;2.80;;;1.93;;
9473;SDS011;8865;47.636;7.692;2023-04-23T05:33:23;2.10;;;1.90;;
9473;SDS011;8865;47.636;7.692;2023-04-23T05:35:49;2.07;;;1.87;;
9473;SDS011;8865;47.636;7.692;2023-04-23T05:38:15;2.60;;;1.90;;
9473;SDS011;8865;47.636;7.692;2023-04-23T05:40:41;1.80;;;1.70;;
9473;SDS011;8865;47.636;7.692;2023-04-23T05:43:07;2.17;;;1.40;;
9473;SDS011;8865;47.636;7.692;2023-04-23T05:45:33;1.87;;;1.77;;
9473;SDS011;8865;47.636;7.692;2023-04-23T05:47:59;2.13;;;1.67;;
9473;SDS011;8865;47.636;7.692;2023-04-23T05:50:25;2.57;;;1.50;;
9473;SDS011;8865;47.636;7.692;2023-04-23T05:52:51;2.10;;;1.50;;
9473;SDS011;8865;47.636;7.692;2023-04-23T05:55:17;1.50;;;1.40;;
9473;SDS011;8865;47.636;7.692;2023-04-23T05:57:45;1.60;;;1.50;;
9473;SDS011;8865;47.636;7.692;2023-04-23T06:00:11;2.03;;;1.67;;
9473;SDS011;8865;47.636;7.692;2023-04-23T06:02:38;2.87;;;1.50;;
9473;SDS011;8865;47.636;7.692;2023-04-23T06:05:04;2.30;;;1.50;;
9473;SDS011;8865;47.636;7.692;2023-04-23T06:07:31;1.97;;;1.73;;
9473;SDS011;8865;47.636;7.692;2023-04-23T06:09:57;1.80;;;1.70;;
9473;SDS011;8865;47.636;7.692;2023-04-23T06:12:24;2.40;;;1.97;;
9473;SDS011;8865;47.636;7.692;2023-04-23T06:14:51;4.07;;;2.37;;
9473;SDS011;8865;47.636;7.692;2023-04-23T06:17:17;2.50;;;2.30;;
9473;SDS011;8865;47.636;7.692;2023-04-23T06:19:43;2.30;;;2.10;;
9473;SDS011;8865;47.636;7.692;2023-04-23T06:22:09;2.30;;;2.10;;
9473;SDS011;8865;47.636;7.692;2023-04-23T06:24:35;2.77;;;1.90;;
9473;SDS011;8865;47.636;7.692;2023-04-23T06:27:02;2.43;;;1.97;;
9473;SDS011;8865;47.636;7.692;2023-04-23T06:29:28;2.80;;;1.90;;
9473;SDS011;8865;47.636;7.692;2023-04-23T06:31:54;3.40;;;2.00;;
9473;SDS011;8865;47.636;7.692;2023-04-23T06:34:21;2.00;;;1.80;;
9473;SDS011;8865;47.636;7.692;2023-04-23T06:36:49;2.07;;;1.70;;
9473;SDS011;8865;47.636;7.692;2023-04-23T06:39:15;1.60;;;1.50;;
9473;SDS011;8865;47.636;7.692;2023-04-23T06:41:42;1.60;;;1.50;;
9473;SDS011;8865;47.636;7.692;2023-04-23T06:44:08;1.90;;;1.80;;
9473;SDS011;8865;47.636;7.692;2023-04-23T06:46:34;1.80;;;1.70;;
9473;SDS011;8865;47.636;7.692;2023-04-23T06:49:00;1.93;;;1.80;;
9473;SDS011;8865;47.636;7.692;2023-04-23T06:51:26;2.03;;;1.70;;
9473;SDS011;8865;47.636;7.692;2023-04-23T06:53:52;1.93;;;1.40;;
9473;SDS011;8865;47.636;7.692;2023-04-23T06:56:19;2.27;;;1.50;;
9473;SDS011;8865;47.636;7.692;2023-04-23T06:58:46;2.67;;;1.67;;
9473;SDS011;8865;47.636;7.692;2023-04-23T07:01:12;2.60;;;1.70;;
9473;SDS011;8865;47.636;7.692;2023-04-23T07:03:38;1.73;;;1.57;;
9473;SDS011;8865;47.636;7.692;2023-04-23T07:06:04;1.70;;;1.60;;
9473;SDS011;8865;47.636;7.692;2023-04-23T07:08:30;2.03;;;1.70;;
9473;SDS011;8865;47.636;7.692;2023-04-23T07:10:56;2.47;;;1.87;;
9473;SDS011;8865;47.636;7.692;2023-04-23T07:13:22;1.63;;;1.43;;
9473;SDS011;8865;47.636;7.692;2023-04-23T07:15:49;1.60;;;1.50;;
9473;SDS011;8865;47.636;7.692;2023-04-23T07:18:15;2.37;;;1.60;;
9473;SDS011;8865;47.636;7.692;2023-04-23T07:20:42;2.67;;;1.30;;
9473;SDS011;8865;47.636;7.692;2023-04-23T07:23:08;1.97;;;1.53;;
9473;SDS011;8865;47.636;7.692;2023-04-23T07:25:34;2.37;;;1.80;;
9473;SDS011;8865;47.636;7.692;2023-04-23T07:28:00;1.30;;;1.20;;
9473;SDS011;8865;47.636;7.692;2023-04-23T07:30:27;1.93;;;1.10;;
9473;SDS011;8865;47.636;7.692;2023-04-23T07:32:53;2.17;;;1.20;;
9473;SDS011;8865;47.636;7.692;2023-04-23T07:35:20;3.33;;;1.40;;
9473;SDS011;8865;47.636;7.692;2023-04-23T07:37:46;2.33;;;1.40;;
9473;SDS011;8865;47.636;7.692;2023-04-23T07:40:12;1.30;;;1.20;;
9473;SDS011;8865;47.636;7.692;2023-04-23T07:42:38;1.00;;;0.90;;
9473;SDS011;8865;47.636;7.692;2023-04-23T07:45:04;3.20;;;2.43;;
9473;SDS011;8865;47.636;7.692;2023-04-23T07:47:31;1.20;;;1.10;;
9473;SDS011;8865;47.636;7.692;2023-04-23T07:49:56;0.90;;;0.90;;
9473;SDS011;8865;47.636;7.692;2023-04-23T07:52:22;2.77;;;1.07;;
9473;SDS011;8865;47.636;7.692;2023-04-23T07:54:48;1.87;;;1.00;;
9473;SDS011;8865;47.636;7.692;2023-04-23T07:57:14;2.07;;;1.47;;
9473;SDS011;8865;47.636;7.692;2023-04-23T07:59:40;1.83;;;1.10;;
9473;SDS011;8865;47.636;7.692;2023-04-23T08:02:07;1.60;;;0.90;;
9473;SDS011;8865;47.636;7.692;2023-04-23T08:04:33;1.20;;;0.87;;
9473;SDS011;8865;47.636;7.692;2023-04-23T08:06:59;1.47;;;0.90;;
9473;SDS011;8865;47.636;7.692;2023-04-23T08:09:25;0.83;;;0.83;;
9473;SDS011;8865;47.636;7.692;2023-04-23T08:11:51;1.80;;;1.10;;
9473;SDS011;8865;47.636;7.692;2023-04-23T08:14:17;0.93;;;0.83;;
9473;SDS011;8865;47.636;7.692;2023-04-23T08:16:43;1.13;;;1.03;;
9473;SDS011;8865;47.636;7.692;2023-04-23T08:19:09;0.87;;;0.80;;
9473;SDS011;8865;47.636;7.692;2023-04-23T08:21:36;1.03;;;0.80;;
9473;SDS011;8865;47.636;7.692;2023-04-23T08:24:02;0.80;;;0.80;;
9473;SDS011;8865;47.636;7.692;2023-04-23T08:26:29;0.97;;;0.80;;
9473;SDS011;8865;47.636;7.692;2023-04-23T08:28:56;0.80;;;0.80;;
9473;SDS011;8865;47.636;7.692;2023-04-23T08:31:22;1.23;;;1.03;;
9473;SDS011;8865;47.636;7.692;2023-04-23T08:33:48;1.07;;;1.00;;
9473;SDS011;8865;47.636;7.692;2023-04-23T08:36:14;0.93;;;0.80;;
9473;SDS011;8865;47.636;7.692;2023-04-23T08:38:40;0.93;;;0.93;;
9473;SDS011;8865;47.636;7.692;2023-04-23T08:41:07;1.70;;;0.90;;
9473;SDS011;8865;47.636;7.692;2023-04-23T08:43:43;1.00;;;0.90;;
9473;SDS011;8865;47.636;7.692;2023-04-23T08:46:14;1.10;;;0.97;;
9473;SDS011;8865;47.636;7.692;2023-04-23T08:48:45;2.17;;;1.00;;
9473;SDS011;8865;47.636;7.692;2023-04-23T08:51:16;1.73;;;1.00;;
9473;SDS011;8865;47.636;7.692;2023-04-23T08:53:44;0.87;;;0.80;;
9473;SDS011;8865;47.636;7.692;2023-04-23T08:56:16;1.37;;;0.90;;
9473;SDS011;8865;47.636;7.692;2023-04-23T08:58:44;1.87;;;0.90;;
9473;SDS011;8865;47.636;7.692;2023-04-23T09:01:11;1.13;;;0.70;;
9473;SDS011;8865;47.636;7.692;2023-04-23T09:03:38;2.17;;;1.00;;
9473;SDS011;8865;47.636;7.692;2023-04-23T09:06:05;1.70;;;1.10;;
9473;SDS011;8865;47.636;7.692;2023-04-23T09:08:31;1.43;;;1.00;;
9473;SDS011;8865;47.636;7.692;2023-04-23T09:11:00;2.83;;;1.20;;
9473;SDS011;8865;47.636;7.692;2023-04-23T09:13:27;1.10;;;1.00;;
9473;SDS011;8865;47.636;7.692;2023-04-23T09:15:56;0.77;;;0.77;;
9473;SDS011;8865;47.636;7.692;2023-04-23T09:18:22;1.17;;;0.90;;
9473;SDS011;8865;47.636;7.692;2023-04-23T09:20:48;3.43;;;1.10;;
9473;SDS011;8865;47.636;7.692;2023-04-23T09:23:14;0.83;;;0.80;;
9473;SDS011;8865;47.636;7.692;2023-04-23T09:25:41;1.10;;;1.00;;
9473;SDS011;8865;47.636;7.692;2023-04-23T09:28:07;2.53;;;0.97;;
9473;SDS011;8865;47.636;7.692;2023-04-23T09:30:38;1.97;;;0.93;;
9473;SDS011;8865;47.636;7.692;2023-04-23T09:33:09;2.00;;;0.90;;
9473;SDS011;8865;47.636;7.692;2023-04-23T09:35:37;1.90;;;1.00;;
9473;SDS011;8865;47.636;7.692;2023-04-23T09:38:03;0.73;;;0.73;;
9473;SDS011;8865;47.636;7.692;2023-04-23T09:40:32;1.50;;;1.07;;
9473;SDS011;8865;47.636;7.692;2023-04-23T09:42:59;1.60;;;1.10;;
9473;SDS011;8865;47.636;7.692;2023-04-23T09:45:29;1.00;;;1.00;;
9473;SDS011;8865;47.636;7.692;2023-04-23T09:47:57;1.97;;;1.20;;
9473;SDS011;8865;47.636;7.692;2023-04-23T09:50:36;0.97;;;0.97;;
9473;SDS011;8865;47.636;7.692;2023-04-23T09:53:04;1.47;;;1.10;;
9473;SDS011;8865;47.636;7.692;2023-04-23T09:55:31;1.43;;;1.20;;
9473;SDS011;8865;47.636;7.692;2023-04-23T09:58:03;1.10;;;1.00;;
9473;SDS011;8865;47.636;7.692;2023-04-23T10:00:34;1.07;;;1.00;;
9473;SDS011;8865;47.636;7.692;2023-04-23T10:03:01;1.23;;;1.13;;
9473;SDS011;8865;47.636;7.692;2023-04-23T10:05:27;1.40;;;1.00;;
9473;SDS011;8865;47.636;7.692;2023-04-23T10:07:56;1.53;;;1.40;;
9473;SDS011;8865;47.636;7.692;2023-04-23T10:10:22;1.97;;;1.60;;
9473;SDS011;8865;47.636;7.692;2023-04-23T10:12:50;2.07;;;1.70;;
9473;SDS011;8865;47.636;7.692;2023-04-23T10:15:18;3.10;;;1.70;;
9473;SDS011;8865;47.636;7.692;2023-04-23T10:17:44;2.63;;;1.73;;
9473;SDS011;8865;47.636;7.692;2023-04-23T10:20:11;4.63;;;1.80;;
9473;SDS011;8865;47.636;7.692;2023-04-23T10:22:39;1.58;;;1.45;;
9473;SDS011;8865;47.636;7.692;2023-04-23T10:25:09;4.05;;;3.75;;
9473;SDS011;8865;47.636;7.692;2023-04-23T10:27:37;9.63;;;5.07;;
9473;SDS011;8865;47.636;7.692;2023-04-23T10:30:05;1.75;;;1.58;;
9473;SDS011;8865;47.636;7.692;2023-04-23T10:32:32;2.70;;;1.70;;
9473;SDS011;8865;47.636;7.692;2023-04-23T10:34:59;3.08;;;1.40;;
9473;SDS011;8865;47.636;7.692;2023-04-23T10:37:25;3.00;;;1.58;;
9473;SDS011;8865;47.636;7.692;2023-04-23T10:39:57;3.00;;;1.20;;
9473;SDS011;8865;47.636;7.692;2023-04-23T10:42:29;2.00;;;1.40;;
9473;SDS011;8865;47.636;7.692;2023-04-23T10:44:56;1.85;;;1.35;;
9473;SDS011;8865;47.636;7.692;2023-04-23T10:47:23;1.92;;;1.60;;
9473;SDS011;8865;47.636;7.692;2023-04-23T10:49:49;2.90;;;1.60;;
9473;SDS011;8865;47.636;7.692;2023-04-23T10:52:16;2.22;;;1.20;;
9473;SDS011;8865;47.636;7.692;2023-04-23T10:54:46;2.88;;;1.50;;
9473;SDS011;8865;47.636;7.692;2023-04-23T10:57:13;2.05;;;1.20;;
9473;SDS011;8865;47.636;7.692;2023-04-23T10:59:51;1.92;;;1.33;;
9473;SDS011;8865;47.636;7.692;2023-04-23T11:02:19;2.95;;;1.40;;
9473;SDS011;8865;47.636;7.692;2023-04-23T11:04:53;1.95;;;1.42;;
9473;SDS011;8865;47.636;7.692;2023-04-23T11:07:24;1.90;;;1.40;;
9473;SDS011;8865;47.636;7.692;2023-04-23T11:09:56;3.88;;;1.55;;
9473;SDS011;8865;47.636;7.692;2023-04-23T11:14:54;2.53;;;1.50;;
9473;SDS011;8865;47.636;7.692;2023-04-23T11:17:21;2.92;;;1.50;;
9473;SDS011;8865;47.636;7.692;2023-04-23T11:20:12;3.28;;;1.58;;
9473;SDS011;8865;47.636;7.692;2023-04-23T11:25:12;2.20;;;1.60;;
9473;SDS011;8865;47.636;7.692;2023-04-23T11:27:43;3.17;;;1.50;;
9473;SDS011;8865;47.636;7.692;2023-04-23T11:30:10;2.40;;;1.40;;
9473;SDS011;8865;47.636;7.692;2023-04-23T11:32:43;2.80;;;1.88;;
9473;SDS011;8865;47.636;7.692;2023-04-23T11:35:12;2.38;;;1.50;;
9473;SDS011;8865;47.636;7.692;2023-04-23T11:37:39;2.05;;;1.50;;
9473;SDS011;8865;47.636;7.692;2023-04-23T11:40:06;3.05;;;1.60;;
9473;SDS011;8865;47.636;7.692;2023-04-23T11:42:41;2.17;;;1.40;;
9473;SDS011;8865;47.636;7.692;2023-04-23T11:47:44;1.52;;;1.20;;
9473;SDS011;8865;47.636;7.692;2023-04-23T11:50:18;3.08;;;1.52;;
9473;SDS011;8865;47.636;7.692;2023-04-23T11:52:45;2.60;;;1.50;;
9473;SDS011;8865;47.636;7.692;2023-04-23T11:55:12;2.05;;;1.30;;
9473;SDS011;8865;47.636;7.692;2023-04-23T11:57:42;1.90;;;1.30;;
9473;SDS011;8865;47.636;7.692;2023-04-23T12:00:16;2.88;;;1.23;;
9473;SDS011;8865;47.636;7.692;2023-04-23T12:02:50;1.55;;;1.10;;
9473;SDS011;8865;47.636;7.692;2023-04-23T12:05:26;2.87;;;1.67;;
9473;SDS011;8865;47.636;7.692;2023-04-23T12:07:53;3.43;;;1.60;;
9473;SDS011;8865;47.636;7.692;2023-04-23T12:10:20;2.00;;;1.43;;
9473;SDS011;8865;47.636;7.692;2023-04-23T12:12:50;3.90;;;1.70;;
9473;SDS011;8865;47.636;7.692;2023-04-23T12:15:17;4.40;;;1.90;;
9473;SDS011;8865;47.636;7.692;2023-04-23T12:17:50;2.50;;;1.30;;
9473;SDS011;8865;47.636;7.692;2023-04-23T12:20:19;2.67;;;1.50;;
9473;SDS011;8865;47.636;7.692;2023-04-23T12:22:46;2.03;;;1.10;;
9473;SDS011;8865;47.636;7.692;2023-04-23T12:25:13;2.40;;;1.40;;
9473;SDS011;8865;47.636;7.692;2023-04-23T12:27:39;2.50;;;1.30;;
9473;SDS011;8865;47.636;7.692;2023-04-23T12:30:07;1.50;;;1.20;;
9473;SDS011;8865;47.636;7.692;2023-04-23T12:32:34;2.70;;;1.67;;
9473;SDS011;8865;47.636;7.692;2023-04-23T12:35:00;4.22;;;2.30;;
9473;SDS011;8865;47.636;7.692;2023-04-23T12:37:27;3.78;;;1.70;;
9473;SDS011;8865;47.636;7.692;2023-04-23T12:39:54;1.60;;;1.30;;
9473;SDS011;8865;47.636;7.692;2023-04-23T12:42:22;3.58;;;1.27;;
9473;SDS011;8865;47.636;7.692;2023-04-23T12:44:48;1.92;;;1.35;;
9473;SDS011;8865;47.636;7.692;2023-04-23T12:47:16;2.58;;;1.20;;
9473;SDS011;8865;47.636;7.692;2023-04-23T12:49:44;4.80;;;1.65;;
9473;SDS011;8865;47.636;7.692;2023-04-23T12:52:11;2.78;;;1.40;;
9473;SDS011;8865;47.636;7.692;2023-04-23T12:54:38;1.98;;;1.20;;
9473;SDS011;8865;47.636;7.692;2023-04-23T12:57:05;2.03;;;0.93;;
9473;SDS011;8865;47.636;7.692;2023-04-23T12:59:33;3.13;;;1.00;;
9473;SDS011;8865;47.636;7.692;2023-04-23T13:01:59;1.20;;;1.10;;
9473;SDS011;8865;47.636;7.692;2023-04-23T13:04:27;2.35;;;1.40;;
9473;SDS011;8865;47.636;7.692;2023-04-23T13:06:53;3.85;;;1.08;;
9473;SDS011;8865;47.636;7.692;2023-04-23T13:09:20;0.80;;;0.80;;
9473;SDS011;8865;47.636;7.692;2023-04-23T13:11:50;1.55;;;0.93;;
9473;SDS011;8865;47.636;7.692;2023-04-23T13:14:17;3.88;;;1.08;;
9473;SDS011;8865;47.636;7.692;2023-04-23T13:16:43;1.55;;;1.10;;
9473;SDS011;8865;47.636;7.692;2023-04-23T13:19:09;1.80;;;1.10;;
9473;SDS011;8865;47.636;7.692;2023-04-23T13:21:37;2.25;;;0.85;;
9473;SDS011;8865;47.636;7.692;2023-04-23T13:24:04;1.35;;;1.00;;
9473;SDS011;8865;47.636;7.692;2023-04-23T13:26:30;1.40;;;1.00;;
9473;SDS011;8865;47.636;7.692;2023-04-23T13:28:57;2.13;;;0.95;;
9473;SDS011;8865;47.636;7.692;2023-04-23T13:31:24;1.50;;;0.98;;
9473;SDS011;8865;47.636;7.692;2023-04-23T13:33:50;0.90;;;0.90;;
9473;SDS011;8865;47.636;7.692;2023-04-23T13:36:17;2.10;;;1.10;;
9473;SDS011;8865;47.636;7.692;2023-04-23T13:38:43;2.70;;;1.10;;
9473;SDS011;8865;47.636;7.692;2023-04-23T13:41:10;1.07;;;0.73;;
9473;SDS011;8865;47.636;7.692;2023-04-23T13:43:36;0.90;;;0.80;;
9473;SDS011;8865;47.636;7.692;2023-04-23T13:46:02;2.53;;;0.80;;
9473;SDS011;8865;47.636;7.692;2023-04-23T13:48:28;1.63;;;0.80;;
9473;SDS011;8865;47.636;7.692;2023-04-23T13:50:56;1.50;;;0.87;;
9473;SDS011;8865;47.636;7.692;2023-04-23T13:53:23;0.87;;;0.50;;
9473;SDS011;8865;47.636;7.692;2023-04-23T13:55:49;0.90;;;0.67;;
9473;SDS011;8865;47.636;7.692;2023-04-23T13:58:15;1.57;;;1.00;;
9473;SDS011;8865;47.636;7.692;2023-04-23T14:00:42;0.63;;;0.60;;
9473;SDS011;8865;47.636;7.692;2023-04-23T14:03:08;0.60;;;0.60;;
9473;SDS011;8865;47.636;7.692;2023-04-23T14:05:34;1.10;;;1.00;;
9473;SDS011;8865;47.636;7.692;2023-04-23T14:08:00;1.10;;;1.00;;
9473;SDS011;8865;47.636;7.692;2023-04-23T14:10:26;2.20;;;0.63;;
9473;SDS011;8865;47.636;7.692;2023-04-23T14:12:52;1.10;;;1.00;;
9473;SDS011;8865;47.636;7.692;2023-04-23T14:15:19;4.40;;;3.00;;
9473;SDS011;8865;47.636;7.692;2023-04-23T14:17:46;3.20;;;2.90;;
9473;SDS011;8865;47.636;7.692;2023-04-23T14:20:12;15.40;;;2.17;;
9473;SDS011;8865;47.636;7.692;2023-04-23T14:22:42;3.87;;;1.10;;
9473;SDS011;8865;47.636;7.692;2023-04-23T14:25:14;1.23;;;0.73;;
9473;SDS011;8865;47.636;7.692;2023-04-23T14:27:52;1.37;;;0.90;;
9473;SDS011;8865;47.636;7.692;2023-04-23T14:30:21;2.87;;;0.90;;
9473;SDS011;8865;47.636;7.692;2023-04-23T14:32:49;1.80;;;0.90;;
9473;SDS011;8865;47.636;7.692;2023-04-23T14:35:15;2.07;;;1.07;;
9473;SDS011;8865;47.636;7.692;2023-04-23T14:37:41;3.27;;;1.10;;
9473;SDS011;8865;47.636;7.692;2023-04-23T14:40:10;3.03;;;1.20;;
9473;SDS011;8865;47.636;7.692;2023-04-23T14:42:40;3.03;;;1.07;;
9473;SDS011;8865;47.636;7.692;2023-04-23T14:45:06;1.43;;;0.90;;
9473;SDS011;8865;47.636;7.692;2023-04-23T14:47:32;1.30;;;0.80;;
9473;SDS011;8865;47.636;7.692;2023-04-23T14:49:58;1.83;;;1.00;;
9473;SDS011;8865;47.636;7.692;2023-04-23T14:52:25;1.97;;;0.97;;
9473;SDS011;8865;47.636;7.692;2023-04-23T14:54:51;4.33;;;1.00;;
9473;SDS011;8865;47.636;7.692;2023-04-23T14:57:20;3.80;;;1.20;;
9473;SDS011;8865;47.636;7.692;2023-04-23T14:59:47;2.40;;;1.20;;
9473;SDS011;8865;47.636;7.692;2023-04-23T15:02:13;3.80;;;1.00;;
9473;SDS011;8865;47.636;7.692;2023-04-23T15:04:39;6.40;;;1.20;;
9473;SDS011;8865;47.636;7.692;2023-04-23T15:07:05;2.47;;;0.90;;
9473;SDS011;8865;47.636;7.692;2023-04-23T15:09:31;1.63;;;0.97;;
9473;SDS011;8865;47.636;7.692;2023-04-23T15:11:56;2.07;;;0.83;;
9473;SDS011;8865;47.636;7.692;2023-04-23T15:14:29;1.20;;;0.73;;
9473;SDS011;8865;47.636;7.692;2023-04-23T15:16:57;2.47;;;0.90;;
9473;SDS011;8865;47.636;7.692;2023-04-23T15:19:23;3.53;;;1.13;;
9473;SDS011;8865;47.636;7.692;2023-04-23T15:21:49;2.87;;;0.70;;